Coronel E Carvajal Airport
SEMC : rendu visible

Aérodrome :











RETROUVEZ-NOUS SUR...

 
LOGIN :

S'inscrire | Disclaimer

   EN    FR    IT 

 









Légende :    VFR   VFR Marginal   IFR   IFR Intensif   IFR Très Intensif
Visi : 
Plafond : 
>= 8 km
>= 3000ft
5 à 8 km
1000 à 3000 ft
1500m à 5 km
500 à 1000 ft
800 à 1500m
200 à 500 ft
< 800m
< 200 ft
Symboles :   Orages  Brouillard  Fortes neiges  Fortes précipitations  Vent > 20 kt






- Altitude de l'aérodrome : 3452 ft
- Code IATA : XMS


SEMC - Coronel E Carvajal

DERNIER METAR :
  • 252300Z 24002KT 9999 VCSH BCFG SCT030 OVC100 19/18 Q1015 RMK A2998

METARs EXPIRÉS :
  • 252200Z 18004KT 9999 4000N -RA SCT010 OVC100 19/18 Q1015 RMK A2999
  • 252122Z 05002KT 9999 4000N -RA FEW010 BKN023 OVC090 18/18 Q1015 RMK A2999
  • 252100Z 36002KT 8000 -RA FEW010 BKN023 OVC090 18/18 Q1016 RERA RMK A3001
  • 252043Z 35004KT 6000 RA FEW010 BKN023 OVC080 18/18 Q1016 RETS RMK A3002
  • 252000Z 32005KT 8000 2000S -TSRA SCT010 FEW020CB BKN023 OVC080 18/18 Q1017 RMK A3003 RERA

TAF N/A



MET'MAP, la Météo Aéronautique d'un coup d'oeil ! - Copyright ORBIFLY Décembre 2007 - Disclaimer

ORBIFLY MET'MAP TEAM :

Programmation & Développement : Alexandra Zaïnal
Sur une idée originale de : Baudouin d'Aumeries
Assistance à la programmation : Marc-Olivier Méhu
Soutien technique & logistique : Manuel Goepfert

Contact : metmap@orbifly.com




SOURCES & CREDITS :

   NOAA       Earth
Advisory